Time;durP1;ratioP1;P1;durP2;ratioP2;P2;SDS_P1;SDS_P2;PMS_P1;PMS_P2;Temp;Humidity;BMP_temperature;BMP_pressure;BME280_temperature;BME280_humidity;BME280_pressure;Samples;Min_cycle;Max_cycle;Signal;HPM_P1;HPM_P2
2022/11/27 00:02:22;;;;;;;19.50;7.07;;;;;;;2.28;100.00;96975.19;5058775;28;24439;-72
2022/11/27 00:04:49;;;;;;;15.60;6.93;;;;;;;2.25;100.00;96964.16;5061151;28;25027;-72
2022/11/27 00:07:16;;;;;;;33.50;7.72;;;;;;;2.31;100.00;96953.88;5064750;28;25003;-72
2022/11/27 00:09:42;;;;;;;23.70;7.00;;;;;;;2.18;100.00;96959.09;5062081;28;24532;-72
2022/11/27 00:12:10;;;;;;;22.55;7.18;;;;;;;2.15;100.00;96959.16;5057819;28;24506;-72
2022/11/27 00:14:36;;;;;;;35.17;7.07;;;;;;;1.99;100.00;96960.16;5063624;28;24446;-72
2022/11/27 00:17:04;;;;;;;12.60;6.40;;;;;;;1.98;100.00;96957.63;5067759;28;24509;-73
2022/11/27 00:19:30;;;;;;;20.80;7.22;;;;;;;2.07;100.00;96948.16;5067867;28;24435;-73
2022/11/27 00:21:57;;;;;;;9.63;6.90;;;;;;;1.99;100.00;96949.94;5059497;28;24481;-72
2022/11/27 00:24:23;;;;;;;25.15;7.07;;;;;;;1.97;100.00;96944.00;5064609;28;24431;-72
2022/11/27 00:26:50;;;;;;;26.63;11.73;;;;;;;2.07;100.00;96943.03;5071579;28;24435;-73
2022/11/27 00:29:17;;;;;;;19.55;7.22;;;;;;;1.96;100.00;96934.63;5067670;28;24446;-71
2022/11/27 00:31:44;;;;;;;38.10;7.60;;;;;;;1.91;100.00;96929.56;5059734;28;24514;-71
2022/11/27 00:34:11;;;;;;;21.23;5.85;;;;;;;1.88;100.00;96926.22;5063058;28;24432;-71
2022/11/27 00:36:38;;;;;;;22.58;6.60;;;;;;;1.77;100.00;96912.69;5067865;28;24792;-71
2022/11/27 00:39:06;;;;;;;33.50;7.13;;;;;;;1.92;100.00;96910.81;5069498;28;24427;-71
2022/11/27 00:41:32;;;;;;;24.17;6.78;;;;;;;1.98;100.00;96902.25;5059736;28;24474;-71
2022/11/27 00:43:59;;;;;;;33.63;7.07;;;;;;;2.06;100.00;96908.13;5061526;28;24446;-71
2022/11/27 00:46:29;;;;;;;58.28;8.00;;;;;;;1.87;100.00;96902.38;5070787;28;24442;-71
2022/11/27 00:48:55;;;;;;;7.50;6.30;;;;;;;1.98;100.00;96894.59;5070697;28;24498;-71
2022/11/27 00:51:23;;;;;;;39.10;7.28;;;;;;;1.89;100.00;96895.56;5060282;28;24437;-71
2022/11/27 00:53:50;;;;;;;65.50;7.00;;;;;;;1.85;100.00;96886.19;5063793;28;24439;-72
2022/11/27 00:56:19;;;;;;;9.95;5.75;;;;;;;1.89;100.00;96887.03;5066429;28;25083;-72
2022/11/27 00:58:46;;;;;;;53.60;8.13;;;;;;;1.75;100.00;96886.34;5059885;28;24438;-71
2022/11/27 01:01:18;;;;;;;22.60;6.33;;;;;;;1.82;100.00;96885.41;5061089;28;25088;-71
2022/11/27 01:03:47;;;;;;;53.30;7.33;;;;;;;1.57;100.00;96887.38;5059237;28;24465;-70
2022/11/27 01:06:15;;;;;;;29.20;6.18;;;;;;;1.46;100.00;96874.69;5070410;28;24434;-70
2022/11/27 01:08:42;;;;;;;31.13;6.28;;;;;;;1.48;100.00;96884.88;5065973;28;24442;-73
2022/11/27 01:11:14;;;;;;;7.10;5.72;;;;;;;1.64;100.00;96882.19;5065045;28;24442;-74
2022/11/27 01:13:40;;;;;;;52.03;7.05;;;;;;;1.56;100.00;96883.97;5064059;28;24431;-72
2022/11/27 01:16:09;;;;;;;52.27;7.30;;;;;;;1.56;100.00;96872.88;5060009;28;24999;-71
2022/11/27 01:18:37;;;;;;;8.10;6.05;;;;;;;1.73;100.00;96880.41;5059337;28;25098;-71
2022/11/27 01:21:06;;;;;;;68.10;7.28;;;;;;;1.61;100.00;96882.22;5067862;28;24457;-71
2022/11/27 01:23:32;;;;;;;42.28;6.80;;;;;;;1.52;100.00;96877.22;5067191;28;24442;-71
2022/11/27 01:26:00;;;;;;;16.90;6.25;;;;;;;1.72;100.00;96866.78;5067816;28;25003;-72
2022/11/27 01:28:26;;;;;;;81.10;6.40;;;;;;;1.51;100.00;96865.28;5059386;28;24442;-70
2022/11/27 01:30:53;;;;;;;58.70;6.93;;;;;;;1.45;100.00;96861.09;5067800;28;24431;-71
2022/11/27 01:33:19;;;;;;;76.30;6.87;;;;;;;1.40;100.00;96855.16;5068345;28;24431;-70
2022/11/27 01:35:54;;;;;;;24.05;5.78;;;;;;;1.50;100.00;96855.09;5060285;28;24436;-71
2022/11/27 01:38:22;;;;;;;36.88;6.20;;;;;;;1.47;100.00;96852.56;5059976;28;24468;-72
2022/11/27 01:40:49;;;;;;;14.30;5.60;;;;;;;1.62;100.00;96842.19;5066141;28;24825;-71
2022/11/27 01:43:16;;;;;;;51.13;6.63;;;;;;;1.56;100.00;96845.66;5068912;28;24442;-70
2022/11/27 01:45:44;;;;;;;16.27;5.22;;;;;;;1.55;100.00;96850.78;5056722;28;24439;-71
2022/11/27 01:48:13;;;;;;;6.82;5.68;;;;;;;1.56;100.00;96845.66;5065251;28;24432;-71
2022/11/27 01:50:40;;;;;;;34.38;6.05;;;;;;;1.61;100.00;96848.16;5068831;28;24458;-72
2022/11/27 01:53:13;;;;;;;30.77;6.03;;;;;;;1.47;100.00;96848.31;5070027;28;24453;-72
2022/11/27 01:55:47;;;;;;;24.08;5.97;;;;;;;1.50;100.00;96850.81;5060030;28;24441;-71
2022/11/27 01:58:18;;;;;;;12.10;5.28;;;;;;;1.53;100.00;96843.16;5066719;28;24439;-70
2022/11/27 02:00:45;;;;;;;27.42;5.30;;;;;;;1.59;100.00;96834.56;5067348;28;24459;-73
2022/11/27 02:03:12;;;;;;;37.50;5.60;;;;;;;1.65;100.00;96834.50;5063192;28;25003;-72
2022/11/27 02:05:38;;;;;;;47.75;6.15;;;;;;;1.44;100.00;96833.84;5059931;28;24435;-71
2022/11/27 02:08:09;;;;;;;13.35;5.18;;;;;;;1.72;100.00;96836.13;5063586;28;24435;-72
2022/11/27 02:10:46;;;;;;;19.38;5.75;;;;;;;1.73;100.00;96837.81;5067514;28;24496;-72
2022/11/27 02:13:15;;;;;;;6.75;5.07;;;;;;;1.78;100.00;96832.66;5061799;28;25004;-72
2022/11/27 02:15:46;;;;;;;5.20;4.70;;;;;;;1.87;100.00;96835.97;5062010;28;24438;-70
2022/11/27 02:18:20;;;;;;;46.10;5.40;;;;;;;1.81;100.00;96827.50;5068564;28;24435;-71
2022/11/27 02:20:55;;;;;;;9.45;4.22;;;;;;;1.64;100.00;96827.72;5066752;28;24458;-72
2022/11/27 02:23:47;;;;;;;8.43;4.68;;;;;;;1.78;100.00;96833.53;5061752;28;24443;-72
2022/11/27 02:26:44;;;;;;;8.20;4.40;;;;;;;1.83;100.00;96830.91;5060152;28;24450;-72
2022/11/27 02:29:13;;;;;;;10.88;4.70;;;;;;;1.73;100.00;96831.88;5065015;28;24446;-72
2022/11/27 02:31:46;;;;;;;27.38;4.50;;;;;;;1.55;100.00;96830.34;5064258;28;24436;-71
2022/11/27 02:34:25;;;;;;;55.03;5.23;;;;;;;1.50;100.00;96821.91;5055853;28;24584;-71
2022/11/27 02:37:00;;;;;;;33.00;4.50;;;;;;;1.45;100.00;96821.97;5059651;28;24439;-71
2022/11/27 02:39:32;;;;;;;8.88;3.90;;;;;;;1.44;100.00;96830.47;5067281;28;24443;-71
2022/11/27 02:42:06;;;;;;;54.85;5.45;;;;;;;1.53;100.00;96821.88;5063158;28;24485;-71
2022/11/27 02:44:38;;;;;;;42.10;4.90;;;;;;;1.55;100.00;96815.03;5058165;28;24535;-71
2022/11/27 02:47:05;;;;;;;6.70;3.70;;;;;;;1.56;100.00;96817.59;5062048;28;24522;-71
2022/11/27 02:49:32;;;;;;;22.38;4.50;;;;;;;1.49;100.00;96825.31;5064270;28;25011;-71
2022/11/27 02:52:02;;;;;;;24.77;3.50;;;;;;;1.52;100.00;96821.03;5060741;28;24439;-71
2022/11/27 02:54:30;;;;;;;76.53;5.67;;;;;;;1.12;100.00;96821.41;5064187;28;24580;-71
2022/11/27 02:57:00;;;;;;;44.17;4.47;;;;;;;1.05;100.00;96824.88;5061820;28;24430;-72
2022/11/27 02:59:31;;;;;;;36.85;3.67;;;;;;;0.97;100.00;96826.66;5060957;28;24437;-72
2022/11/27 03:02:04;;;;;;;26.42;3.63;;;;;;;1.16;100.00;96832.44;5063802;28;25056;-71
2022/11/27 03:04:37;;;;;;;52.72;4.90;;;;;;;1.08;100.00;96817.19;5057467;28;24924;-71
2022/11/27 03:07:09;;;;;;;68.38;4.70;;;;;;;1.21;100.00;96823.88;5062671;28;24459;-71
2022/11/27 03:09:38;;;;;;;15.43;3.10;;;;;;;1.24;100.00;96809.41;5062101;28;24437;-71
2022/11/27 03:12:07;;;;;;;82.85;5.00;;;;;;;0.94;100.00;96803.72;5059665;28;24979;-71
2022/11/27 03:14:35;;;;;;;14.00;2.80;;;;;;;0.91;100.00;96786.72;5057532;28;24436;-71
2022/11/27 03:17:10;;;;;;;20.60;3.17;;;;;;;0.94;100.00;96796.06;5055751;28;24450;-71
2022/11/27 03:19:45;;;;;;;34.03;3.50;;;;;;;0.86;100.00;96796.13;5067111;28;24828;-71
2022/11/27 03:22:12;;;;;;;24.20;3.75;;;;;;;0.69;100.00;96791.16;5058766;28;24558;-71
2022/11/27 03:24:39;;;;;;;48.15;4.05;;;;;;;0.51;100.00;96786.19;5057441;28;24462;-71
2022/11/27 03:27:06;;;;;;;15.82;3.03;;;;;;;0.70;100.00;96792.88;5056955;28;25042;-71
2022/11/27 03:29:37;;;;;;;4.63;2.90;;;;;;;0.86;100.00;96775.72;5060350;28;24431;-73
2022/11/27 03:32:05;;;;;;;61.28;4.22;;;;;;;0.81;100.00;96776.59;5059609;28;24435;-73
2022/11/27 03:34:32;;;;;;;17.13;3.15;;;;;;;0.96;100.00;96779.03;5053336;28;24435;-73
2022/11/27 03:36:59;;;;;;;19.85;2.85;;;;;;;0.99;100.00;96780.72;5066756;28;24438;-73
2022/11/27 03:39:26;;;;;;;4.85;2.72;;;;;;;1.10;100.00;96784.00;5065908;28;24438;-73
2022/11/27 03:42:01;;;;;;;4.72;2.85;;;;;;;1.13;100.00;96782.28;5058132;28;24459;-73
2022/11/27 03:44:35;;;;;;;34.58;3.38;;;;;;;0.58;100.00;96792.09;5065066;28;24442;-74
2022/11/27 03:47:11;;;;;;;28.08;3.80;;;;;;;0.52;100.00;96795.56;5063193;28;24859;-74
2022/11/27 03:49:55;;;;;;;13.85;2.65;;;;;;;0.53;100.00;96789.59;5058048;28;25006;-75
2022/11/27 03:52:28;;;;;;;3.10;2.42;;;;;;;0.55;100.00;96792.94;5066396;28;24442;-74
2022/11/27 03:55:04;;;;;;;15.50;3.15;;;;;;;0.53;100.00;96792.13;5065643;28;24435;-75
2022/11/27 03:57:38;;;;;;;23.88;3.03;;;;;;;0.48;100.00;96781.09;5064687;28;24442;-75
2022/11/27 04:00:07;;;;;;;2.72;2.47;;;;;;;0.63;100.00;96781.03;5067775;28;24434;-74
2022/11/27 04:02:42;;;;;;;17.58;2.67;;;;;;;0.62;100.00;96774.22;5066969;28;24455;-75
2022/11/27 04:05:09;;;;;;;27.58;3.08;;;;;;;0.39;100.00;96778.63;5059581;28;25166;-75
2022/11/27 04:07:35;;;;;;;12.30;2.95;;;;;;;0.56;100.00;96779.38;5072269;28;24431;-74
2022/11/27 04:10:02;;;;;;;2.57;2.30;;;;;;;0.65;100.00;96769.09;5067592;28;24490;-75
2022/11/27 04:12:29;;;;;;;20.83;3.10;;;;;;;0.42;100.00;96764.16;5063985;28;24435;-74
2022/11/27 04:14:55;;;;;;;9.93;2.70;;;;;;;0.56;100.00;96774.28;5068415;28;24438;-75
2022/11/27 04:17:22;;;;;;;4.70;2.40;;;;;;;0.63;100.00;96759.75;5071801;28;24438;-74
2022/11/27 04:19:49;;;;;;;4.35;2.30;;;;;;;0.52;100.00;96767.50;5068662;28;24439;-75
2022/11/27 04:22:16;;;;;;;37.40;3.30;;;;;;;0.53;100.00;96766.66;5069386;28;24455;-74
2022/11/27 04:24:42;;;;;;;8.30;2.55;;;;;;;0.50;100.00;96771.75;5067737;28;24431;-72
2022/11/27 04:27:09;;;;;;;9.20;3.03;;;;;;;0.62;100.00;96765.72;5070875;28;24432;-73
2022/11/27 04:29:36;;;;;;;3.28;2.28;;;;;;;0.51;100.00;96767.50;5061471;28;25266;-74
2022/11/27 04:32:03;;;;;;;12.98;3.03;;;;;;;0.62;100.00;96748.72;5062699;28;24972;-74
2022/11/27 04:34:29;;;;;;;5.45;2.50;;;;;;;0.61;100.00;96754.69;5060790;28;24442;-74
2022/11/27 04:36:57;;;;;;;9.55;2.25;;;;;;;0.67;100.00;96741.06;5071502;28;24438;-74
2022/11/27 04:39:24;;;;;;;26.48;2.45;;;;;;;0.30;100.00;96741.34;5063069;28;25218;-74
2022/11/27 04:41:50;;;;;;;24.55;2.38;;;;;;;0.20;100.00;96740.53;5066527;28;24458;-74
2022/11/27 04:44:17;;;;;;;10.65;1.90;;;;;;;0.10;100.00;96741.44;5068304;28;25004;-74
2022/11/27 04:46:43;;;;;;;18.48;2.20;;;;;;;0.12;100.00;96737.19;5070727;28;24520;-74
2022/11/27 04:49:11;;;;;;;4.70;2.10;;;;;;;0.31;100.00;96747.28;5067128;28;24434;-75
2022/11/27 04:51:37;;;;;;;15.73;2.25;;;;;;;0.19;100.00;96749.03;5062569;28;24437;-75
2022/11/27 04:54:05;;;;;;;48.33;2.92;;;;;;;0.21;100.00;96746.47;5066546;28;25002;-75
2022/11/27 04:56:32;;;;;;;11.48;2.10;;;;;;;0.24;100.00;96756.66;5069083;28;24446;-75
2022/11/27 04:58:58;;;;;;;22.13;2.38;;;;;;;0.26;100.00;96749.84;5066782;28;24441;-73
2022/11/27 05:01:25;;;;;;;5.30;1.80;;;;;;;0.41;100.00;96754.84;5061909;28;24454;-73
2022/11/27 05:03:52;;;;;;;15.15;2.30;;;;;;;0.45;100.00;96743.75;5063150;28;24438;-74
2022/11/27 05:06:21;;;;;;;9.23;1.85;;;;;;;0.49;100.00;96744.59;5063304;28;24996;-72
2022/11/27 05:08:48;;;;;;;79.90;4.20;;;;;;;0.31;100.00;96747.28;5069233;28;24462;-71
2022/11/27 05:11:17;;;;;;;68.65;3.40;;;;;;;0.04;100.00;96746.59;5063126;28;24991;-71
2022/11/27 05:13:44;;;;;;;46.35;3.00;;;;;;;-0.03;100.00;96740.69;5062729;28;24435;-72
2022/11/27 05:16:10;;;;;;;63.20;3.63;;;;;;;-0.04;100.00;96741.56;5068808;28;24435;-72
2022/11/27 05:18:37;;;;;;;20.98;2.33;;;;;;;-0.01;100.00;96740.66;5068926;28;24438;-71
2022/11/27 05:21:05;;;;;;;35.90;2.30;;;;;;;0.02;100.00;96739.81;5062555;28;24446;-72
2022/11/27 05:23:33;;;;;;;22.33;2.30;;;;;;;0.09;100.00;96738.91;5062075;28;24458;-71
2022/11/27 05:25:59;;;;;;;17.05;2.25;;;;;;;0.10;100.00;96736.34;5069591;28;24454;-71
2022/11/27 05:28:27;;;;;;;20.25;2.25;;;;;;;-0.07;100.00;96730.53;5068230;28;24441;-72
2022/11/27 05:30:54;;;;;;;2.97;2.05;;;;;;;0.07;100.00;96732.97;5068648;28;25015;-72
2022/11/27 05:33:21;;;;;;;30.33;3.08;;;;;;;-0.05;100.00;96734.75;5066044;28;24445;-71
2022/11/27 05:35:47;;;;;;;35.30;3.17;;;;;;;-0.12;100.00;96722.06;5067124;28;24443;-72
2022/11/27 05:38:14;;;;;;;19.77;8.93;;;;;;;0.10;100.00;96723.63;5069585;28;24801;-72
2022/11/27 05:40:40;;;;;;;12.00;2.75;;;;;;;0.22;100.00;96721.00;5069139;28;24442;-72
2022/11/27 05:43:07;;;;;;;4.47;2.20;;;;;;;0.21;100.00;96716.75;5061721;28;25015;-71
2022/11/27 05:45:37;;;;;;;8.55;3.72;;;;;;;0.23;100.00;96721.84;5070441;28;24476;-71
2022/11/27 05:48:03;;;;;;;11.13;4.00;;;;;;;0.27;100.00;96720.13;5065555;28;24431;-70
2022/11/27 05:50:30;;;;;;;10.90;4.40;;;;;;;0.27;100.00;96720.97;5061899;28;24991;-72
2022/11/27 05:52:56;;;;;;;5.78;3.80;;;;;;;0.31;100.00;96720.09;5066875;28;24995;-74
2022/11/27 05:55:23;;;;;;;3.78;2.75;;;;;;;0.38;100.00;96724.28;5059565;28;24442;-72
2022/11/27 05:57:49;;;;;;;24.88;3.30;;;;;;;0.42;100.00;96725.09;5063264;28;25011;-72
2022/11/27 06:00:17;;;;;;;12.07;2.60;;;;;;;0.33;100.00;96728.53;5068881;28;24439;-72
2022/11/27 06:02:44;;;;;;;12.10;2.45;;;;;;;0.22;100.00;96726.09;5066316;28;24486;-72
2022/11/27 06:05:11;;;;;;;23.65;2.95;;;;;;;0.02;100.00;96722.81;5064806;28;24442;-72
2022/11/27 06:07:37;;;;;;;14.40;2.70;;;;;;;0.15;100.00;96721.03;5058289;28;24436;-72
2022/11/27 06:10:05;;;;;;;5.68;2.10;;;;;;;0.30;100.00;96731.13;5062128;28;24431;-72
2022/11/27 06:12:32;;;;;;;30.23;2.63;;;;;;;-0.08;100.00;96731.38;5061134;28;24436;-70
2022/11/27 06:14:58;;;;;;;15.98;2.00;;;;;;;-0.19;100.00;96730.59;5068025;28;24442;-72
2022/11/27 06:17:25;;;;;;;2.92;2.30;;;;;;;0.06;100.00;96734.69;5065622;28;24439;-73
2022/11/27 06:19:52;;;;;;;6.43;2.20;;;;;;;0.16;100.00;96735.47;5061313;28;24528;-72
2022/11/27 06:22:19;;;;;;;2.58;2.08;;;;;;;0.20;100.00;96735.44;5064512;28;24459;-72
2022/11/27 06:24:45;;;;;;;12.88;2.35;;;;;;;0.13;100.00;96735.50;5065355;28;24446;-72
2022/11/27 06:27:12;;;;;;;8.40;2.08;;;;;;;0.18;100.00;96721.84;5063185;28;24453;-72
2022/11/27 06:29:38;;;;;;;12.48;2.40;;;;;;;0.17;100.00;96729.53;5060568;28;24431;-72
2022/11/27 06:32:05;;;;;;;3.60;2.40;;;;;;;0.13;100.00;96731.25;5067688;28;24442;-72
2022/11/27 06:34:32;;;;;;;2.83;2.38;;;;;;;0.16;100.00;96723.59;5063181;28;24431;-72
2022/11/27 06:37:00;;;;;;;2.88;2.40;;;;;;;0.17;100.00;96717.63;5060769;28;24984;-72
2022/11/27 06:39:26;;;;;;;3.75;2.60;;;;;;;0.24;100.00;96713.34;5062525;28;24439;-71
2022/11/27 06:41:53;;;;;;;4.90;2.80;;;;;;;0.21;100.00;96700.63;5056730;28;24435;-70
2022/11/27 06:44:19;;;;;;;5.00;3.10;;;;;;;0.27;100.00;96705.69;5065577;28;24445;-70
2022/11/27 06:46:46;;;;;;;5.00;3.22;;;;;;;0.34;100.00;96707.31;5068276;28;24470;-71
2022/11/27 06:49:12;;;;;;;5.03;2.60;;;;;;;-0.02;100.00;96704.16;5066877;28;24443;-71
2022/11/27 06:51:39;;;;;;;5.75;2.60;;;;;;;0.00;100.00;96706.72;5063720;28;24450;-71
2022/11/27 06:54:07;;;;;;;2.63;2.08;;;;;;;0.11;100.00;96696.44;5063855;28;24786;-70
2022/11/27 06:56:33;;;;;;;2.93;2.30;;;;;;;0.03;100.00;96691.41;5063195;28;24457;-72
2022/11/27 06:59:01;;;;;;;5.10;2.85;;;;;;;0.22;100.00;96687.00;5065500;28;24431;-71
2022/11/27 07:01:29;;;;;;;3.58;2.60;;;;;;;0.35;100.00;96693.72;5063780;28;24435;-72
2022/11/27 07:03:56;;;;;;;3.88;2.88;;;;;;;0.33;100.00;96684.38;5064642;28;24450;-73
2022/11/27 07:06:25;;;;;;;4.57;2.47;;;;;;;0.35;100.00;96692.88;5061429;28;24437;-75
2022/11/27 07:08:53;;;;;;;3.40;2.28;;;;;;;0.40;100.00;96694.50;5068482;28;25003;-73
2022/11/27 07:11:22;;;;;;;4.00;2.58;;;;;;;0.24;100.00;96695.50;5062674;28;24449;-73
2022/11/27 07:13:50;;;;;;;3.67;3.30;;;;;;;0.24;100.00;96690.41;5063438;28;24442;-72
2022/11/27 07:16:18;;;;;;;7.90;3.83;;;;;;;0.12;100.00;96686.25;5057937;28;24786;-72
2022/11/27 07:18:47;;;;;;;4.05;3.15;;;;;;;0.27;100.00;96672.56;5062500;28;24435;-72
2022/11/27 07:21:14;;;;;;;3.73;2.93;;;;;;;0.38;100.00;96664.81;5067064;28;24467;-71
2022/11/27 07:23:41;;;;;;;5.07;2.80;;;;;;;0.44;100.00;96672.41;5063959;28;24455;-70
2022/11/27 07:26:10;;;;;;;5.27;3.03;;;;;;;0.15;100.00;96672.63;5065825;28;24438;-71
2022/11/27 07:28:38;;;;;;;3.20;2.70;;;;;;;0.24;100.00;96659.84;5066158;28;24840;-68
2022/11/27 07:31:05;;;;;;;3.53;2.50;;;;;;;0.48;100.00;96672.38;5062819;28;24810;-70
2022/11/27 07:33:31;;;;;;;3.08;2.25;;;;;;;0.64;100.00;96657.78;5053352;28;24439;-70
2022/11/27 07:35:59;;;;;;;4.15;2.80;;;;;;;0.81;100.00;96654.22;5063488;28;24430;-70
2022/11/27 07:38:26;;;;;;;4.50;2.55;;;;;;;0.83;100.00;96649.94;5065661;28;24441;-70
2022/11/27 07:40:52;;;;;;;4.68;2.70;;;;;;;0.67;100.00;96650.13;5063606;28;24439;-70
2022/11/27 07:43:19;;;;;;;2.65;2.38;;;;;;;0.77;100.00;96650.84;5058119;28;24521;-69
2022/11/27 07:45:46;;;;;;;8.30;6.00;;;;;;;0.79;100.00;96659.34;5058035;28;24435;-69
2022/11/27 07:48:13;;;;;;;4.43;4.00;;;;;;;0.86;100.00;96663.50;5064430;28;24438;-71
2022/11/27 07:50:40;;;;;;;4.38;3.10;;;;;;;1.02;100.00;96653.16;5064025;28;24809;-71
2022/11/27 07:53:06;;;;;;;14.65;6.45;;;;;;;1.10;100.00;96653.91;5061579;28;24472;-71
2022/11/27 07:55:33;;;;;;;11.70;6.93;;;;;;;1.21;100.00;96654.63;5064193;28;24432;-72
2022/11/27 07:57:59;;;;;;;14.88;9.07;;;;;;;1.16;100.00;96653.84;5067483;28;24983;-70
2022/11/27 08:00:26;;;;;;;16.80;12.25;;;;;;;1.02;100.00;96650.59;5065351;28;24454;-71
2022/11/27 08:02:54;;;;;;;11.23;7.72;;;;;;;0.81;100.00;96659.31;5066649;28;24504;-71
2022/11/27 08:05:20;;;;;;;4.75;3.13;;;;;;;0.68;100.00;96658.59;5063044;28;24453;-71
2022/11/27 08:07:47;;;;;;;4.47;4.03;;;;;;;0.70;100.00;96660.28;5059794;28;24500;-71
2022/11/27 08:10:13;;;;;;;4.28;2.92;;;;;;;0.63;100.00;96650.13;5065591;28;24438;-71
2022/11/27 08:12:40;;;;;;;4.50;3.42;;;;;;;0.72;100.00;96647.50;5067087;28;24437;-71
2022/11/27 08:15:08;;;;;;;11.43;8.25;;;;;;;0.96;100.00;96644.72;5067145;28;25006;-72
2022/11/27 08:17:34;;;;;;;4.88;3.67;;;;;;;0.96;100.00;96636.19;5065452;28;24431;-72
2022/11/27 08:20:02;;;;;;;5.63;4.90;;;;;;;0.70;100.00;96647.53;5065313;28;24457;-71
2022/11/27 08:22:29;;;;;;;6.75;4.38;;;;;;;0.81;100.00;96655.03;5066522;28;24458;-72
2022/11/27 08:24:55;;;;;;;8.10;3.37;;;;;;;1.06;100.00;96659.91;5066703;28;24481;-72
2022/11/27 08:27:22;;;;;;;3.75;2.58;;;;;;;0.99;100.00;96663.38;5065546;28;24438;-72
2022/11/27 08:29:48;;;;;;;4.13;2.53;;;;;;;1.04;100.00;96664.16;5065742;28;24443;-72
2022/11/27 08:32:15;;;;;;;3.58;2.22;;;;;;;1.23;100.00;96645.25;5067192;28;24805;-72
2022/11/27 08:34:41;;;;;;;4.18;2.40;;;;;;;1.42;100.00;96628.84;5064077;28;24446;-71
2022/11/27 08:37:09;;;;;;;4.70;2.38;;;;;;;1.54;100.00;96632.91;5065555;28;24431;-72
2022/11/27 08:39:36;;;;;;;4.30;2.45;;;;;;;1.68;100.00;96615.72;5071257;28;24439;-72
2022/11/27 08:42:02;;;;;;;3.53;2.50;;;;;;;1.75;100.00;96613.06;5070020;28;24987;-72
2022/11/27 08:44:29;;;;;;;4.45;2.80;;;;;;;1.85;100.00;96614.59;5063830;28;24451;-70
2022/11/27 08:46:55;;;;;;;5.45;3.13;;;;;;;1.92;100.00;96608.53;5065903;28;25010;-72
2022/11/27 08:49:22;;;;;;;5.63;3.05;;;;;;;1.94;100.00;96610.22;5065313;28;24442;-72
2022/11/27 08:51:48;;;;;;;4.13;2.70;;;;;;;1.84;100.00;96602.72;5070846;28;24442;-72
2022/11/27 08:54:16;;;;;;;5.32;3.40;;;;;;;1.80;100.00;96601.06;5066429;28;24434;-72
2022/11/27 08:56:43;;;;;;;4.18;3.28;;;;;;;1.98;100.00;96587.19;5067934;28;24435;-72
2022/11/27 08:59:09;;;;;;;3.88;2.85;;;;;;;2.02;100.00;96597.31;5064952;28;24461;-71
2022/11/27 09:01:36;;;;;;;5.73;3.47;;;;;;;2.16;100.00;96587.72;5067264;28;24450;-72
2022/11/27 09:04:03;;;;;;;3.63;2.95;;;;;;;2.27;100.00;96592.66;5067235;28;24450;-70
2022/11/27 09:06:32;;;;;;;5.13;3.30;;;;;;;2.16;100.00;96604.75;5061846;28;24427;-70
2022/11/27 09:09:00;;;;;;;6.80;5.43;;;;;;;2.22;100.00;96602.09;5062177;28;24534;-70
2022/11/27 09:11:30;;;;;;;4.45;3.60;;;;;;;2.32;100.00;96605.34;5067669;28;24461;-70
2022/11/27 09:13:58;;;;;;;5.83;3.13;;;;;;;2.29;100.00;96603.66;5070934;28;24434;-72
2022/11/27 09:16:25;;;;;;;4.20;3.15;;;;;;;2.67;100.00;96587.66;5071006;28;24433;-72
2022/11/27 09:18:53;;;;;;;4.72;3.17;;;;;;;3.12;100.00;96579.97;5070252;28;24434;-72
2022/11/27 09:21:21;;;;;;;3.65;2.95;;;;;;;3.58;100.00;96584.09;5070172;28;24487;-72
2022/11/27 09:23:48;;;;;;;3.30;2.65;;;;;;;3.45;100.00;96592.06;5070258;28;24490;-71
2022/11/27 09:26:16;;;;;;;9.05;4.40;;;;;;;3.38;100.00;96596.50;5065411;28;24439;-72
2022/11/27 09:28:44;;;;;;;4.82;4.00;;;;;;;3.46;100.00;96598.91;5068198;28;24434;-72
2022/11/27 09:31:13;;;;;;;4.83;3.30;;;;;;;3.52;100.00;96607.28;5067054;28;24536;-72
2022/11/27 09:33:41;;;;;;;3.78;2.83;;;;;;;3.43;100.00;96604.06;5065840;28;24438;-72
2022/11/27 09:36:09;;;;;;;4.35;2.58;;;;;;;3.44;100.00;96610.88;5058715;28;24995;-72
2022/11/27 09:38:36;;;;;;;5.47;3.22;;;;;;;3.95;100.00;96597.78;5064276;28;24441;-72
2022/11/27 09:41:15;;;;;;;4.80;2.58;;;;;;;3.94;100.00;96596.94;5069873;28;25130;-71
2022/11/27 09:43:49;;;;;;;4.20;2.78;;;;;;;4.40;100.00;96592.41;5069352;28;24521;-72
2022/11/27 09:46:24;;;;;;;9.77;3.47;;;;;;;4.57;100.00;96577.44;5062241;28;25071;-73
2022/11/27 09:48:52;;;;;;;4.22;2.65;;;;;;;4.89;100.00;96574.00;5068294;28;24477;-71
2022/11/27 09:51:26;;;;;;;6.25;2.97;;;;;;;4.93;100.00;96562.78;5063316;28;24517;-71
2022/11/27 09:53:59;;;;;;;4.78;3.25;;;;;;;4.93;100.00;96565.34;5059582;28;24438;-71
2022/11/27 09:56:26;;;;;;;6.88;2.70;;;;;;;4.90;100.00;96559.47;5069004;28;24435;-72
2022/11/27 09:58:58;;;;;;;5.20;2.60;;;;;;;4.80;100.00;96549.44;5065531;28;24788;-71
2022/11/27 10:01:27;;;;;;;3.58;2.30;;;;;;;4.78;100.00;96550.34;5058397;28;24509;-71
2022/11/27 10:03:54;;;;;;;6.85;2.20;;;;;;;4.53;100.00;96550.19;5064855;28;24987;-72
2022/11/27 10:06:28;;;;;;;4.20;2.53;;;;;;;4.47;100.00;96550.34;5062330;28;24435;-73
2022/11/27 10:09:11;;;;;;;4.68;2.22;;;;;;;4.55;100.00;96549.25;5061255;28;24526;-74
2022/11/27 10:11:47;;;;;;;4.70;2.47;;;;;;;4.57;100.00;96549.22;5058914;28;24479;-72
2022/11/27 10:14:31;;;;;;;3.58;2.35;;;;;;;4.59;100.00;96547.44;5069557;28;24431;-73
2022/11/27 10:17:02;;;;;;;5.15;2.58;;;;;;;4.63;100.00;96546.47;5068139;28;24514;-72
2022/11/27 10:19:37;;;;;;;5.65;3.17;;;;;;;4.54;100.00;96539.03;5066963;28;24427;-73
2022/11/27 10:22:12;;;;;;;6.60;3.88;;;;;;;4.49;100.00;96541.72;5066709;28;24445;-72
2022/11/27 10:24:45;;;;;;;4.15;2.95;;;;;;;4.52;100.00;96539.06;5060417;28;24813;-72
2022/11/27 10:27:19;;;;;;;3.65;2.10;;;;;;;4.71;100.00;96525.72;5066129;28;24450;-72
2022/11/27 10:29:51;;;;;;;3.63;2.47;;;;;;;4.88;100.00;96535.53;5069348;28;24441;-72
2022/11/27 10:32:21;;;;;;;4.22;2.42;;;;;;;5.00;100.00;96530.88;5058200;28;24731;-72
2022/11/27 10:34:53;;;;;;;3.60;2.35;;;;;;;5.07;100.00;96532.41;5063960;28;24442;-71
2022/11/27 10:37:26;;;;;;;3.85;2.40;;;;;;;5.17;100.00;96527.00;5061380;28;24500;-72
2022/11/27 10:39:57;;;;;;;3.47;2.47;;;;;;;5.08;100.00;96517.88;5069434;28;24430;-72
2022/11/27 10:42:31;;;;;;;3.92;2.20;;;;;;;5.42;100.00;96525.41;5062446;28;25294;-72
2022/11/27 10:45:05;;;;;;;2.85;2.15;;;;;;;5.58;100.00;96506.03;5058120;28;25001;-72
2022/11/27 10:47:32;;;;;;;3.80;2.40;;;;;;;5.64;100.00;96509.31;5061322;28;24446;-71
2022/11/27 10:49:59;;;;;;;4.18;2.22;;;;;;;5.87;100.00;96504.28;5067679;28;24525;-71
2022/11/27 10:52:26;;;;;;;3.67;2.10;;;;;;;6.04;100.00;96506.31;5065168;28;24439;-71
2022/11/27 10:54:57;;;;;;;5.65;2.30;;;;;;;5.92;100.00;96496.41;5064458;28;24431;-71
2022/11/27 10:57:47;;;;;;;5.22;2.00;;;;;;;5.73;100.00;96501.31;5065729;28;24435;-71
2022/11/27 11:00:20;;;;;;;3.13;2.00;;;;;;;5.77;100.00;96487.47;5054928;28;24435;-71
2022/11/27 11:02:46;;;;;;;3.25;2.17;;;;;;;5.75;100.00;96473.84;5063523;28;24445;-71
2022/11/27 11:05:20;;;;;;;3.28;2.25;;;;;;;5.90;100.00;96465.63;5059280;28;24457;-71
2022/11/27 11:07:56;;;;;;;4.00;2.20;;;;;;;5.70;100.00;96460.28;5062976;28;24863;-71
2022/11/27 11:10:27;;;;;;;4.97;2.10;;;;;;;5.80;100.00;96451.38;5062901;28;24438;-71
2022/11/27 11:13:15;;;;;;;3.13;1.83;;;;;;;5.69;100.00;96448.31;5069275;28;24446;-72
2022/11/27 11:15:52;;;;;;;3.45;1.55;;;;;;;5.96;100.00;96439.72;5058115;28;24442;-72
2022/11/27 11:18:19;;;;;;;2.87;1.93;;;;;;;5.77;100.00;96430.91;5059473;28;24445;-72
2022/11/27 11:20:52;;;;;;;5.88;1.80;;;;;;;5.75;100.00;96423.28;5064916;28;24450;-72
2022/11/27 11:23:38;;;;;;;2.67;1.90;;;;;;;6.24;100.00;96408.75;5065331;28;24992;-72
2022/11/27 11:26:12;;;;;;;5.05;2.28;;;;;;;6.23;100.00;96416.50;5064432;28;24446;-72
2022/11/27 11:28:46;;;;;;;3.13;1.73;;;;;;;6.21;100.00;96403.72;5059313;28;24431;-72
2022/11/27 11:31:18;;;;;;;3.45;1.60;;;;;;;6.43;100.00;96402.94;5063654;28;20794;-72
2022/11/27 11:33:52;;;;;;;4.53;1.80;;;;;;;6.35;100.00;96397.25;5065928;28;24443;-72
2022/11/27 11:36:19;;;;;;;3.53;1.73;;;;;;;6.08;100.00;96405.03;5065942;28;24443;-72
2022/11/27 11:38:47;;;;;;;2.93;1.93;;;;;;;6.01;100.00;96404.41;5060138;28;25089;-72